Time;durP1;ratioP1;P1;durP2;ratioP2;P2;SDS_P1;SDS_P2;PMS_P1;PMS_P2;Temp;Humidity;BMP_temperature;BMP_pressure;BME280_temperature;BME280_humidity;BME280_pressure;Samples;Min_cycle;Max_cycle;Signal;HPM_P1;HPM_P2
2021/07/16 02:47:39;;;;;;;5.38;2.53;;;22.10;75.60;;;;;;4734796;24;20060;-78
2021/07/16 02:50:07;;;;;;;6.17;2.77;;;22.00;75.80;;;;;;4719160;30;20100;-78
2021/07/16 02:52:33;;;;;;;3.60;1.92;;;22.00;75.70;;;;;;4701451;30;20116;-78
2021/07/16 02:54:59;;;;;;;4.47;1.90;;;22.00;76.10;;;;;;4714911;30;20037;-78
2021/07/16 02:57:25;;;;;;;2.58;1.90;;;22.00;75.90;;;;;;4714271;30;20324;-78
2021/07/16 02:59:51;;;;;;;3.15;1.90;;;22.00;75.90;;;;;;4730650;30;20039;-78
2021/07/16 03:02:17;;;;;;;2.58;2.10;;;21.90;76.00;;;;;;4714963;30;20064;-78
2021/07/16 03:04:43;;;;;;;2.75;2.00;;;21.90;76.30;;;;;;4698669;30;20072;-77
2021/07/16 03:07:09;;;;;;;2.22;1.63;;;21.90;76.50;;;;;;4730808;30;20044;-78
2021/07/16 03:09:35;;;;;;;4.10;1.65;;;21.80;76.80;;;;;;4729625;30;20033;-78
2021/07/16 03:12:03;;;;;;;10.50;1.75;;;21.80;76.90;;;;;;4715239;30;20079;-78
2021/07/16 03:14:29;;;;;;;2.33;1.38;;;21.80;76.90;;;;;;4700940;30;20120;-78
2021/07/16 03:16:54;;;;;;;3.15;1.73;;;21.80;76.80;;;;;;4717992;30;20037;-78
2021/07/16 03:19:20;;;;;;;6.03;2.08;;;21.80;76.60;;;;;;4730861;30;20123;-78
2021/07/16 03:21:46;;;;;;;3.33;2.10;;;21.80;76.50;;;;;;4711977;30;20064;-78
2021/07/16 03:24:12;;;;;;;6.53;2.00;;;21.90;76.30;;;;;;4714308;30;20045;-78
2021/07/16 03:26:38;;;;;;;2.22;1.60;;;21.80;76.20;;;;;;4730337;30;20036;-77
2021/07/16 03:29:05;;;;;;;3.45;2.28;;;21.90;76.30;;;;;;4714789;30;20263;-78
2021/07/16 03:31:31;;;;;;;3.55;2.28;;;21.90;76.10;;;;;;4714714;30;20028;-78
2021/07/16 03:33:57;;;;;;;2.85;1.88;;;21.90;76.20;;;;;;4695705;30;20069;-77
2021/07/16 03:36:22;;;;;;;2.53;1.73;;;21.90;76.10;;;;;;4711832;30;20041;-80
2021/07/16 03:38:51;;;;;;;2.05;1.73;;;21.90;76.10;;;;;;4715038;30;20398;-78
2021/07/16 03:41:17;;;;;;;3.33;1.88;;;22.00;76.00;;;;;;4714780;30;20063;-78
2021/07/16 03:43:43;;;;;;;3.77;1.60;;;22.00;76.10;;;;;;4715394;30;20037;-78
2021/07/16 03:46:09;;;;;;;2.40;2.13;;;22.00;76.00;;;;;;4730245;30;20064;-78
2021/07/16 03:48:35;;;;;;;4.25;2.20;;;22.00;76.10;;;;;;4714364;30;20029;-79
2021/07/16 03:51:01;;;;;;;4.97;2.35;;;22.00;76.20;;;;;;4714453;30;20029;-78
2021/07/16 03:53:26;;;;;;;5.57;2.20;;;22.00;76.20;;;;;;4714736;30;20033;-77
2021/07/16 03:55:52;;;;;;;3.08;2.10;;;22.00;76.20;;;;;;4714693;30;20037;-78
2021/07/16 03:58:18;;;;;;;1.88;1.50;;;22.10;76.30;;;;;;4730219;30;20100;-77
2021/07/16 04:00:44;;;;;;;3.45;1.65;;;22.10;76.20;;;;;;4700403;30;20255;-77
2021/07/16 04:03:10;;;;;;;3.55;1.83;;;22.20;76.10;;;;;;4730191;30;20163;-78
2021/07/16 04:05:38;;;;;;;3.55;2.00;;;22.20;75.90;;;;;;4730425;30;20033;-78
2021/07/16 04:08:05;;;;;;;7.25;2.05;;;22.30;75.80;;;;;;4712370;30;20047;-78
2021/07/16 04:10:31;;;;;;;;;;;22.20;75.80;;;;;;4713184;30;20029;-78
2021/07/16 04:13:01;;;;;;;3.55;1.52;;;22.30;75.90;;;;;;4727525;30;20103;-77
2021/07/16 04:15:27;;;;;;;2.00;1.58;;;22.30;76.00;;;;;;4711345;30;20080;-78
2021/07/16 04:17:54;;;;;;;6.67;2.00;;;22.30;76.00;;;;;;4732418;30;20029;-78
2021/07/16 04:20:20;;;;;;;;;;;22.40;75.80;;;;;;4699621;30;20029;-77
2021/07/16 04:22:46;;;;;;;6.87;1.77;;;22.40;75.70;;;;;;4724753;30;19942;-79
2021/07/16 04:25:19;;;;;;;6.85;1.92;;;22.50;75.50;;;;;;4715926;30;20029;-78
2021/07/16 04:27:46;;;;;;;7.40;2.35;;;22.50;75.40;;;;;;4714575;30;20170;-78
2021/07/16 04:30:13;;;;;;;3.90;2.00;;;22.60;75.30;;;;;;4705950;30;20051;-78
2021/07/16 04:32:40;;;;;;;3.85;1.73;;;22.60;75.00;;;;;;4717320;30;20021;-78
2021/07/16 04:35:06;;;;;;;4.63;2.38;;;22.70;75.10;;;;;;4716321;30;20033;-77
2021/07/16 04:37:34;;;;;;;4.30;1.88;;;22.80;74.70;;;;;;4714326;30;20101;-77
2021/07/16 04:40:00;;;;;;;5.85;1.83;;;22.80;74.60;;;;;;4699696;30;20113;-78
2021/07/16 04:42:26;;;;;;;4.50;2.10;;;22.90;74.50;;;;;;4699316;30;20029;-77
2021/07/16 04:44:51;;;;;;;7.43;1.90;;;23.00;74.10;;;;;;4708811;30;20083;-77
2021/07/16 04:47:17;;;;;;;2.45;1.67;;;23.00;73.70;;;;;;4690645;30;20041;-77
2021/07/16 04:49:43;;;;;;;3.63;1.95;;;23.10;73.70;;;;;;4709567;30;20037;-77
2021/07/16 04:52:09;;;;;;;3.90;1.80;;;23.20;73.50;;;;;;4712346;30;20228;-77
2021/07/16 04:54:34;;;;;;;3.47;1.45;;;23.20;73.40;;;;;;4712409;30;20284;-77
2021/07/16 04:57:00;;;;;;;4.88;1.77;;;23.20;73.60;;;;;;4711152;30;20352;-78
2021/07/16 04:59:26;;;;;;;6.03;2.13;;;23.30;73.10;;;;;;4712412;30;20028;-78
2021/07/16 05:01:52;;;;;;;4.75;1.92;;;23.40;73.00;;;;;;4712012;30;20033;-78
2021/07/16 05:04:18;;;;;;;2.97;1.90;;;23.30;73.00;;;;;;4710494;30;20041;-77
2021/07/16 05:06:45;;;;;;;5.25;1.55;;;23.30;73.50;;;;;;4711101;30;20030;-78
2021/07/16 05:09:10;;;;;;;3.97;1.73;;;23.20;73.30;;;;;;4711030;30;20033;-78
2021/07/16 05:11:36;;;;;;;3.72;1.95;;;23.30;73.20;;;;;;4712410;30;21027;-77
2021/07/16 05:14:02;;;;;;;4.82;1.95;;;23.30;72.90;;;;;;4711981;30;20037;-78
2021/07/16 05:16:28;;;;;;;6.55;1.98;;;23.40;72.70;;;;;;4711545;30;20040;-77
2021/07/16 05:18:54;;;;;;;3.88;1.90;;;23.40;72.60;;;;;;4697318;30;20043;-78
2021/07/16 05:21:20;;;;;;;2.40;1.70;;;23.30;72.90;;;;;;4694215;30;20305;-77
2021/07/16 05:23:46;;;;;;;5.63;1.83;;;23.40;73.90;;;;;;4713891;30;20049;-77
2021/07/16 05:26:13;;;;;;;3.65;1.80;;;23.50;72.90;;;;;;4712220;30;20036;-77
2021/07/16 05:28:38;;;;;;;;;;;23.50;72.80;;;;;;4711963;30;20091;-77
2021/07/16 05:31:04;;;;;;;9.03;2.13;;;23.50;72.50;;;;;;4707932;30;19911;-77
2021/07/16 05:33:30;;;;;;;2.95;1.70;;;23.50;72.70;;;;;;4693260;30;20050;-77
2021/07/16 05:35:56;;;;;;;5.68;1.85;;;23.80;71.80;;;;;;4708834;30;20040;-77
2021/07/16 05:38:22;;;;;;;2.85;1.75;;;24.60;69.80;;;;;;4710488;30;20057;-77
2021/07/16 05:40:49;;;;;;;3.17;1.90;;;25.20;66.90;;;;;;4706583;30;20038;-77
2021/07/16 05:43:15;;;;;;;3.75;2.03;;;25.70;65.10;;;;;;4708433;30;20049;-78
2021/07/16 05:45:42;;;;;;;4.85;1.80;;;26.20;63.90;;;;;;4695268;30;20269;-77
2021/07/16 05:48:10;;;;;;;5.03;1.83;;;26.60;62.20;;;;;;4711834;30;20232;-77
2021/07/16 05:50:40;;;;;;;5.53;2.10;;;26.80;61.30;;;;;;4710774;30;20072;-77
2021/07/16 05:53:07;;;;;;;4.47;1.50;;;27.20;60.50;;;;;;4706937;30;20122;-77
2021/07/16 05:55:34;;;;;;;4.38;1.98;;;27.30;59.20;;;;;;4707653;30;20029;-77
2021/07/16 05:58:00;;;;;;;10.40;1.80;;;27.40;59.40;;;;;;4708772;30;20042;-78
2021/07/16 06:00:27;;;;;;;3.58;1.67;;;27.70;58.10;;;;;;4710023;30;20061;-77
2021/07/16 06:02:53;;;;;;;5.05;1.67;;;27.60;58.30;;;;;;4709060;30;20390;-77
2021/07/16 06:05:19;;;;;;;2.00;1.53;;;27.50;59.10;;;;;;4694639;30;20025;-77
2021/07/16 06:07:45;;;;;;;2.45;1.60;;;27.30;59.40;;;;;;4723695;30;20112;-77
2021/07/16 06:10:12;;;;;;;1.85;1.50;;;27.20;59.70;;;;;;4710733;30;20033;-77
2021/07/16 06:12:38;;;;;;;2.03;1.60;;;27.20;60.30;;;;;;4710817;30;20297;-77
2021/07/16 06:15:06;;;;;;;2.92;2.10;;;27.30;60.40;;;;;;4708067;30;20036;-77
2021/07/16 06:17:32;;;;;;;5.40;2.22;;;27.30;59.50;;;;;;4716537;30;20045;-78
2021/07/16 06:19:59;;;;;;;4.63;2.50;;;27.10;60.20;;;;;;4710769;30;20263;-77
2021/07/16 06:22:25;;;;;;;3.65;1.50;;;27.10;60.90;;;;;;4694864;30;20038;-78
2021/07/16 06:24:51;;;;;;;3.17;1.67;;;27.10;61.00;;;;;;4709920;30;20108;-78
2021/07/16 06:27:17;;;;;;;3.63;2.25;;;27.50;60.40;;;;;;4710170;30;20080;-78
2021/07/16 06:29:43;;;;;;;6.57;2.17;;;27.70;59.50;;;;;;4695378;30;20056;-77
2021/07/16 06:32:09;;;;;;;10.48;2.22;;;27.90;58.20;;;;;;4724042;30;20026;-78
2021/07/16 06:34:36;;;;;;;3.90;1.70;;;27.90;57.20;;;;;;4695659;30;20244;-84
2021/07/16 06:37:02;;;;;;;6.13;2.30;;;27.90;57.70;;;;;;4715520;30;20037;-82
2021/07/16 06:39:28;;;;;;;2.90;2.00;;;28.00;57.30;;;;;;4714904;30;20033;-82
2021/07/16 06:41:54;;;;;;;6.05;2.15;;;28.20;57.50;;;;;;4715130;30;20284;-82
2021/07/16 06:44:20;;;;;;;3.97;2.03;;;28.40;57.50;;;;;;4701841;30;20033;-82
2021/07/16 06:46:46;;;;;;;9.02;3.03;;;28.50;57.20;;;;;;4717312;30;20053;-82
2021/07/16 06:49:11;;;;;;;5.18;1.70;;;28.60;57.20;;;;;;4701370;30;20041;-83
2021/07/16 06:51:37;;;;;;;3.58;1.88;;;28.60;57.60;;;;;;4715749;30;20041;-85
2021/07/16 06:54:04;;;;;;;4.35;1.88;;;28.50;56.90;;;;;;4714950;30;20068;-85
2021/07/16 06:56:35;;;;;;;7.00;1.70;;;28.60;56.70;;;;;;4699584;30;20289;-84
2021/07/16 06:59:01;;;;;;;6.75;2.03;;;28.50;56.80;;;;;;4713566;30;20042;-86
2021/07/16 07:01:27;;;;;;;4.77;1.93;;;28.60;57.10;;;;;;4714447;30;20031;-85
2021/07/16 07:03:53;;;;;;;3.10;1.88;;;28.60;57.00;;;;;;4699353;30;20100;-85
2021/07/16 07:06:19;;;;;;;4.20;2.33;;;28.50;56.40;;;;;;4698394;30;20106;-85
2021/07/16 07:08:45;;;;;;;3.50;1.90;;;28.30;57.10;;;;;;4713858;30;20033;-85
2021/07/16 07:11:11;;;;;;;4.70;2.53;;;28.30;57.50;;;;;;4713624;30;20047;-86
2021/07/16 07:13:36;;;;;;;4.70;1.98;;;28.50;57.90;;;;;;4714091;30;20021;-83
2021/07/16 07:16:06;;;;;;;5.27;2.37;;;28.70;57.10;;;;;;4701299;30;20351;-85
2021/07/16 07:18:31;;;;;;;3.92;2.10;;;28.70;57.40;;;;;;4713925;30;20085;-85
2021/07/16 07:20:57;;;;;;;4.50;2.30;;;28.70;56.90;;;;;;4715594;30;20033;-83
2021/07/16 07:23:23;;;;;;;3.67;2.40;;;28.80;57.70;;;;;;4715139;30;20030;-83
2021/07/16 07:25:49;;;;;;;6.05;2.40;;;28.90;56.70;;;;;;4712172;30;20312;-85
2021/07/16 07:28:16;;;;;;;4.90;2.20;;;28.80;57.50;;;;;;4693578;30;20037;-84
2021/07/16 07:30:42;;;;;;;1.92;1.55;;;28.80;56.90;;;;;;4708283;30;20064;-85
2021/07/16 07:33:13;;;;;;;3.35;1.88;;;28.70;56.90;;;;;;4697174;30;20033;-86
2021/07/16 07:35:44;;;;;;;6.18;2.72;;;28.50;57.20;;;;;;4697426;30;20173;-85
2021/07/16 07:38:13;;;;;;;4.85;2.03;;;28.50;57.40;;;;;;4696856;30;20046;-83
2021/07/16 07:40:40;;;;;;;5.97;2.30;;;28.50;57.80;;;;;;4708182;30;20336;-84
2021/07/16 07:43:07;;;;;;;4.68;2.05;;;28.60;58.30;;;;;;4697394;30;20053;-84
2021/07/16 07:45:33;;;;;;;5.95;2.20;;;28.70;58.60;;;;;;4700321;30;20108;-85
2021/07/16 07:47:59;;;;;;;6.90;2.72;;;28.90;57.90;;;;;;4721114;30;20060;-84
2021/07/16 07:50:26;;;;;;;5.45;2.80;;;28.70;57.20;;;;;;4697582;30;20441;-85
2021/07/16 07:52:52;;;;;;;;;;;28.50;57.40;;;;;;4697085;30;20029;-84
2021/07/16 07:55:21;;;;;;;2.63;2.08;;;28.40;58.00;;;;;;4716979;30;19974;-84
2021/07/16 07:57:47;;;;;;;2.53;2.22;;;28.40;58.20;;;;;;4719502;30;20132;-84
2021/07/16 08:00:16;;;;;;;6.15;2.72;;;28.60;57.80;;;;;;4705194;30;20043;-86
2021/07/16 08:02:50;;;;;;;3.97;2.60;;;28.80;58.30;;;;;;4715423;30;20028;-86
2021/07/16 08:05:47;;;;;;;4.40;2.08;;;28.90;57.70;;;;;;4711379;30;20059;-86
2021/07/16 08:08:13;;;;;;;7.43;2.50;;;29.00;57.80;;;;;;4710288;30;20037;-84
2021/07/16 08:10:39;;;;;;;3.03;2.30;;;28.80;56.10;;;;;;4697002;30;20046;-84
2021/07/16 08:13:05;;;;;;;3.50;2.30;;;28.70;55.80;;;;;;4710049;30;20063;-86
2021/07/16 08:15:31;;;;;;;4.45;2.38;;;28.80;55.70;;;;;;4695746;30;20037;-85
2021/07/16 08:18:12;;;;;;;4.85;2.30;;;28.90;56.30;;;;;;4713967;30;20042;-84
2021/07/16 08:20:44;;;;;;;8.52;2.67;;;28.90;54.50;;;;;;4709700;30;20061;-85
2021/07/16 08:23:10;;;;;;;8.88;2.58;;;29.00;55.20;;;;;;4694038;30;20045;-85
2021/07/16 08:25:36;;;;;;;4.13;2.17;;;29.00;56.90;;;;;;4697967;30;20030;-85
2021/07/16 08:28:03;;;;;;;9.83;2.80;;;29.00;55.40;;;;;;4701894;30;20034;-84
2021/07/16 08:30:29;;;;;;;6.70;2.05;;;28.80;54.90;;;;;;4710467;30;20113;-85
2021/07/16 08:32:55;;;;;;;5.82;2.53;;;28.80;57.10;;;;;;4698562;30;20462;-85
2021/07/16 08:35:21;;;;;;;5.40;2.50;;;28.90;56.20;;;;;;4710776;30;20052;-84
2021/07/16 08:37:47;;;;;;;5.27;2.20;;;29.00;56.00;;;;;;4683521;30;20038;-85
2021/07/16 08:40:14;;;;;;;5.97;2.50;;;28.90;57.10;;;;;;4696768;30;20288;-85
2021/07/16 08:42:39;;;;;;;;;;;29.10;57.50;;;;;;4696823;30;20112;-85
2021/07/16 08:45:07;;;;;;;8.40;2.30;;;29.20;56.30;;;;;;4709290;30;19965;-85
2021/07/16 08:47:33;;;;;;;5.93;2.00;;;29.50;57.20;;;;;;4711503;30;20076;-85
2021/07/16 08:50:00;;;;;;;;;;;29.50;55.70;;;;;;4708992;30;20033;-85
2021/07/16 08:52:27;;;;;;;4.13;2.33;;;29.50;56.20;;;;;;4705371;30;19946;-85
2021/07/16 08:54:55;;;;;;;4.47;2.92;;;29.70;56.10;;;;;;4702922;30;20037;-86
2021/07/16 08:57:24;;;;;;;4.05;2.20;;;29.70;56.20;;;;;;4700678;30;20040;-85
2021/07/16 08:59:50;;;;;;;9.02;2.50;;;29.60;57.60;;;;;;4701922;30;20029;-85
2021/07/16 09:02:16;;;;;;;4.35;2.30;;;29.70;57.00;;;;;;4735056;30;20057;-85
2021/07/16 09:04:42;;;;;;;6.60;2.70;;;29.70;55.60;;;;;;4704557;30;20045;-85
2021/07/16 09:07:08;;;;;;;5.57;2.60;;;29.70;55.10;;;;;;4719020;30;20056;-84
2021/07/16 09:09:36;;;;;;;2.95;2.50;;;29.70;54.80;;;;;;4704679;30;20047;-84
2021/07/16 09:12:09;;;;;;;5.43;4.00;;;29.80;55.10;;;;;;4719783;30;20045;-85
2021/07/16 09:14:36;;;;;;;5.43;3.33;;;29.80;54.70;;;;;;4728027;30;20346;-86
2021/07/16 09:17:12;;;;;;;4.80;2.50;;;29.90;54.50;;;;;;4701054;30;20041;-85
2021/07/16 09:19:39;;;;;;;;;;;30.00;55.00;;;;;;4718980;30;20087;-84
2021/07/16 09:22:09;;;;;;;4.90;2.30;;;30.00;54.70;;;;;;4717899;30;19911;-86
2021/07/16 09:24:39;;;;;;;6.35;2.47;;;30.20;54.50;;;;;;4700906;30;20091;-84
2021/07/16 09:27:31;;;;;;;3.08;2.10;;;30.20;53.00;;;;;;4717466;30;20029;-85
2021/07/16 09:30:27;;;;;;;3.92;2.38;;;30.30;53.40;;;;;;4718738;30;20036;-85
2021/07/16 09:32:54;;;;;;;;;;;30.40;52.80;;;;;;4647126;30;20074;-86
2021/07/16 09:35:33;;;;;;;4.95;2.30;;;30.20;52.30;;;;;;4655411;30;19912;-84
2021/07/16 09:38:05;;;;;;;3.15;1.83;;;30.40;54.90;;;;;;4661030;30;20101;-75
2021/07/16 09:40:37;;;;;;;4.85;2.22;;;30.50;55.30;;;;;;4663304;30;20093;-76
2021/07/16 09:43:13;;;;;;;4.07;2.75;;;30.70;52.40;;;;;;4645807;30;20053;-76
2021/07/16 09:45:44;;;;;;;6.30;2.33;;;30.70;52.80;;;;;;4673659;30;20393;-76
2021/07/16 09:48:24;;;;;;;5.78;2.17;;;30.80;51.80;;;;;;4646875;30;20322;-75
2021/07/16 09:51:20;;;;;;;2.85;1.98;;;31.00;52.20;;;;;;4659638;30;20050;-76
2021/07/16 09:53:50;;;;;;;;;;;31.00;50.40;;;;;;4614277;31;20062;-76
2021/07/16 09:56:24;;;;;;;6.10;1.95;;;31.10;50.80;;;;;;4606120;31;19920;-76
2021/07/16 09:58:59;;;;;;;4.30;1.85;;;31.30;51.20;;;;;;4610585;31;20552;-76
2021/07/16 10:01:27;;;;;;;3.67;2.45;;;31.50;51.10;;;;;;4610109;31;20043;-77
2021/07/16 10:03:55;;;;;;;5.18;2.20;;;31.50;50.20;;;;;;4608850;31;20301;-77
2021/07/16 10:06:22;;;;;;;4.05;2.17;;;31.50;51.20;;;;;;4603611;31;20547;-75
2021/07/16 10:08:48;;;;;;;2.55;2.08;;;31.60;50.30;;;;;;4600704;30;20038;-77
2021/07/16 10:11:19;;;;;;;2.85;1.83;;;31.50;50.10;;;;;;4656638;30;20109;-75
2021/07/16 10:13:47;;;;;;;6.03;2.28;;;31.60;49.80;;;;;;4656789;30;20042;-77
2021/07/16 10:16:13;;;;;;;3.65;2.10;;;31.50;49.50;;;;;;4643768;30;20049;-77
2021/07/16 10:18:40;;;;;;;3.13;2.20;;;31.50;51.00;;;;;;4655829;30;20060;-76
2021/07/16 10:21:06;;;;;;;5.65;2.05;;;31.60;49.40;;;;;;4656067;30;20053;-76
2021/07/16 10:23:33;;;;;;;8.23;2.07;;;31.40;48.60;;;;;;4628249;30;20074;-76
2021/07/16 10:26:00;;;;;;;4.47;1.73;;;31.40;51.00;;;;;;4656603;30;20524;-76
2021/07/16 10:28:40;;;;;;;1.92;1.60;;;31.60;49.70;;;;;;4656349;30;20063;-76
2021/07/16 10:31:39;;;;;;;3.20;1.80;;;31.70;48.10;;;;;;4691183;30;20045;-76
2021/07/16 10:34:11;;;;;;;3.50;1.70;;;31.90;48.10;;;;;;4723531;30;20088;-76
2021/07/16 10:36:37;;;;;;;4.47;1.75;;;31.90;46.70;;;;;;4726530;30;20029;-76
2021/07/16 10:39:08;;;;;;;2.83;1.97;;;32.00;48.90;;;;;;4711225;30;20041;-76
2021/07/16 10:41:37;;;;;;;2.70;1.50;;;32.30;48.00;;;;;;4726455;30;20096;-76
2021/07/16 10:44:03;;;;;;;5.95;1.52;;;32.20;43.80;;;;;;4726736;30;20032;-76
2021/07/16 10:46:47;;;;;;;3.53;1.60;;;31.80;43.90;;;;;;4711488;30;20045;-78
2021/07/16 10:49:14;;;;;;;7.57;2.00;;;31.80;46.40;;;;;;4697666;30;20212;-77
2021/07/16 10:51:40;;;;;;;3.35;1.40;;;31.90;46.40;;;;;;4714324;30;20037;-78
2021/07/16 10:54:10;;;;;;;1.55;1.30;;;31.90;44.50;;;;;;4727181;30;20059;-77
2021/07/16 10:56:40;;;;;;;4.88;1.50;;;31.90;46.30;;;;;;4713591;30;20044;-80
2021/07/16 10:59:07;;;;;;;5.05;1.80;;;32.00;44.70;;;;;;4704546;30;20044;-77
2021/07/16 11:01:39;;;;;;;2.30;1.83;;;31.90;45.20;;;;;;4730840;30;20052;-79
2021/07/16 11:04:07;;;;;;;2.60;2.00;;;31.50;45.10;;;;;;4732229;30;20047;-80
2021/07/16 11:07:05;;;;;;;4.72;1.40;;;31.50;46.50;;;;;;4698622;30;20036;-80
2021/07/16 11:09:33;;;;;;;5.07;1.85;;;31.80;45.80;;;;;;4675878;30;20155;-80
2021/07/16 11:12:24;;;;;;;4.03;1.58;;;31.60;44.40;;;;;;4681877;30;20230;-78
2021/07/16 11:14:51;;;;;;;2.83;1.70;;;31.70;45.50;;;;;;4674816;30;20252;-77
2021/07/16 11:17:36;;;;;;;3.83;1.67;;;31.90;44.30;;;;;;4668604;30;20084;-81
2021/07/16 11:20:17;;;;;;;1.35;1.20;;;32.00;43.90;;;;;;4694330;30;20034;-81
2021/07/16 11:23:03;;;;;;;3.95;1.50;;;32.00;42.80;;;;;;4669256;30;20038;-81
2021/07/16 11:25:30;;;;;;;3.33;1.63;;;31.90;42.50;;;;;;4671982;30;20040;-80
2021/07/16 11:27:57;;;;;;;3.60;1.80;;;32.00;44.40;;;;;;4698498;30;20061;-80
2021/07/16 11:30:23;;;;;;;4.68;2.15;;;32.00;43.40;;;;;;4687365;30;20094;-81
2021/07/16 11:32:49;;;;;;;2.13;0.90;;;32.20;44.00;;;;;;4702451;30;20113;-80
2021/07/16 11:35:15;;;;;;;4.80;1.50;;;32.50;42.60;;;;;;4695737;30;20315;-82
2021/07/16 11:37:49;;;;;;;1.75;1.30;;;32.30;41.10;;;;;;4683488;30;20033;-84
2021/07/16 11:40:26;;;;;;;7.70;1.58;;;32.00;44.20;;;;;;4665084;30;20049;-84
2021/07/16 11:42:56;;;;;;;3.10;1.50;;;31.90;43.10;;;;;;4673402;30;20039;-82
2021/07/16 11:45:25;;;;;;;5.13;1.63;;;32.00;44.40;;;;;;4726084;30;20104;-82
2021/07/16 11:47:53;;;;;;;4.72;1.40;;;32.20;45.10;;;;;;4723436;30;20404;-78
2021/07/16 11:50:19;;;;;;;3.17;1.23;;;32.20;42.30;;;;;;4703624;30;20082;-80
2021/07/16 11:52:50;;;;;;;1.90;1.23;;;32.00;42.00;;;;;;4719085;30;20061;-77
2021/07/16 11:55:28;;;;;;;3.80;1.58;;;31.70;42.30;;;;;;4724278;30;20570;-76
2021/07/16 11:57:58;;;;;;;2.65;1.33;;;31.80;44.50;;;;;;4710908;30;20076;-77
2021/07/16 12:00:37;;;;;;;5.18;1.40;;;32.10;43.30;;;;;;4713660;30;20029;-77
2021/07/16 12:03:10;;;;;;;1.73;1.30;;;32.40;42.60;;;;;;4728896;30;20048;-77
2021/07/16 12:05:54;;;;;;;2.92;1.40;;;32.50;42.80;;;;;;4728982;30;20324;-76
2021/07/16 12:08:28;;;;;;;3.42;1.15;;;32.70;43.10;;;;;;4714441;30;20039;-76
2021/07/16 12:11:09;;;;;;;20.38;3.67;;;32.60;41.50;;;;;;4713433;30;20100;-76
2021/07/16 12:13:35;;;;;;;8.05;3.13;;;32.40;40.60;;;;;;4728860;30;20029;-76
2021/07/16 12:16:12;;;;;;;2.28;1.63;;;32.30;40.90;;;;;;4727745;30;20044;-76
2021/07/16 12:18:39;;;;;;;2.13;1.00;;;32.30;41.70;;;;;;4728978;30;20041;-76
2021/07/16 12:21:13;;;;;;;3.33;1.15;;;32.50;43.20;;;;;;4713334;30;20148;-77
2021/07/16 12:23:40;;;;;;;2.15;1.60;;;32.70;42.80;;;;;;4713199;30;20052;-76
2021/07/16 12:26:13;;;;;;;2.88;1.27;;;32.80;41.40;;;;;;4728904;30;20366;-76
2021/07/16 12:28:39;;;;;;;1.95;1.30;;;32.70;41.20;;;;;;4712025;30;20043;-76
2021/07/16 12:31:05;;;;;;;3.17;1.73;;;32.70;39.60;;;;;;4726863;30;20204;-77
2021/07/16 12:33:35;;;;;;;2.08;1.05;;;32.50;40.20;;;;;;4728412;30;20350;-77
2021/07/16 12:36:01;;;;;;;2.20;1.20;;;32.40;40.30;;;;;;4712909;30;20041;-77
2021/07/16 12:38:34;;;;;;;4.53;1.80;;;32.40;39.90;;;;;;4729074;30;20037;-77
2021/07/16 12:41:08;;;;;;;1.63;1.15;;;32.40;41.50;;;;;;4727635;30;20352;-77
2021/07/16 12:43:39;;;;;;;1.95;1.10;;;32.60;41.60;;;;;;4698553;30;20121;-76
2021/07/16 12:46:05;;;;;;;4.47;1.45;;;32.80;40.80;;;;;;4729015;30;20068;-76
2021/07/16 12:48:34;;;;;;;2.25;1.25;;;33.00;40.60;;;;;;4698104;30;20033;-76
2021/07/16 12:51:09;;;;;;;3.92;1.40;;;33.10;40.60;;;;;;4713082;30;20067;-77
2021/07/16 12:53:45;;;;;;;7.03;1.65;;;33.30;40.10;;;;;;4712837;30;20056;-76
2021/07/16 12:56:22;;;;;;;1.83;1.55;;;33.10;40.10;;;;;;4721601;30;20067;-77
2021/07/16 12:58:55;;;;;;;2.75;1.20;;;32.60;41.20;;;;;;4712756;30;20327;-76
2021/07/16 13:01:39;;;;;;;3.88;1.35;;;32.20;40.70;;;;;;4712667;30;20157;-77
2021/07/16 13:04:13;;;;;;;3.03;2.35;;;32.20;40.50;;;;;;4712310;30;20052;-76
2021/07/16 13:06:39;;;;;;;3.78;1.40;;;32.50;41.40;;;;;;4712892;30;20084;-76
2021/07/16 13:09:21;;;;;;;1.40;1.27;;;32.70;39.60;;;;;;4704405;30;20120;-76
2021/07/16 13:12:04;;;;;;;2.25;1.10;;;32.70;39.50;;;;;;4728274;30;20328;-76
2021/07/16 13:14:53;;;;;;;1.85;1.30;;;32.80;39.60;;;;;;4706623;30;20045;-76
2021/07/16 13:17:38;;;;;;;2.50;1.40;;;33.00;41.10;;;;;;4646098;30;20266;-76
2021/07/16 13:20:11;;;;;;;7.82;1.42;;;33.20;42.10;;;;;;4657646;30;20051;-76
2021/07/16 13:22:40;;;;;;;2.08;1.38;;;33.30;40.40;;;;;;4636174;30;20413;-76
2021/07/16 13:25:08;;;;;;;1.73;1.10;;;33.30;41.20;;;;;;4656988;30;20046;-76
2021/07/16 13:27:34;;;;;;;2.42;1.30;;;33.50;40.10;;;;;;4655308;30;20270;-76
2021/07/16 13:30:00;;;;;;;1.00;0.90;;;33.50;37.40;;;;;;4643106;30;20046;-77
2021/07/16 13:32:26;;;;;;;5.63;1.07;;;33.50;40.70;;;;;;4657139;30;20050;-77
2021/07/16 13:34:52;;;;;;;4.10;2.13;;;33.70;39.50;;;;;;4637205;30;20425;-77
2021/07/16 13:37:19;;;;;;;2.10;1.20;;;33.80;39.50;;;;;;4642414;30;20133;-77
2021/07/16 13:39:45;;;;;;;5.25;1.52;;;33.70;38.20;;;;;;4642931;30;20050;-78
2021/07/16 13:42:11;;;;;;;1.83;1.42;;;33.50;38.10;;;;;;4656285;30;20039;-76
2021/07/16 13:44:37;;;;;;;2.27;1.20;;;33.60;40.30;;;;;;4644273;30;20105;-77
2021/07/16 13:47:03;;;;;;;2.03;1.23;;;33.50;38.00;;;;;;4644981;30;20277;-77
2021/07/16 13:49:29;;;;;;;2.45;1.13;;;33.50;40.80;;;;;;4644576;30;20118;-77
2021/07/16 13:51:57;;;;;;;4.85;1.48;;;33.50;38.60;;;;;;4659407;30;20038;-79
2021/07/16 13:54:24;;;;;;;2.63;1.20;;;33.50;39.70;;;;;;4681514;30;20055;-80
2021/07/16 13:56:51;;;;;;;;;;;33.80;41.30;;;;;;4713636;30;20047;-79
2021/07/16 13:59:17;;;;;;;2.60;1.50;;;34.00;37.80;;;;;;4713487;30;19952;-81
2021/07/16 14:01:44;;;;;;;4.78;1.20;;;34.10;38.30;;;;;;4712062;30;20049;-79
2021/07/16 14:04:10;;;;;;;4.00;1.47;;;34.20;37.70;;;;;;4725994;30;20117;-80
2021/07/16 14:06:35;;;;;;;3.03;0.93;;;34.20;39.10;;;;;;4711468;30;20061;-76
2021/07/16 14:09:02;;;;;;;1.87;1.20;;;34.10;37.80;;;;;;4714447;30;20084;-78
2021/07/16 14:11:28;;;;;;;7.97;1.50;;;33.90;38.00;;;;;;4703325;30;20030;-77
2021/07/16 14:13:53;;;;;;;2.67;1.10;;;34.00;38.60;;;;;;4713163;30;20071;-76
2021/07/16 14:16:19;;;;;;;3.27;1.40;;;34.10;38.10;;;;;;4695727;30;20034;-78
2021/07/16 14:18:45;;;;;;;2.30;1.00;;;34.00;38.50;;;;;;4699600;30;20033;-77
2021/07/16 14:21:11;;;;;;;6.97;1.60;;;34.00;37.70;;;;;;4698310;30;20351;-77
2021/07/16 14:23:36;;;;;;;4.93;1.40;;;33.90;38.00;;;;;;4708444;30;20038;-77
2021/07/16 14:26:04;;;;;;;1.97;1.10;;;33.80;38.00;;;;;;4711805;30;20029;-79
2021/07/16 14:28:31;;;;;;;2.13;1.00;;;33.80;38.50;;;;;;4712763;30;20105;-77
2021/07/16 14:30:57;;;;;;;2.15;1.08;;;33.80;37.60;;;;;;4705666;30;20038;-76
2021/07/16 14:33:23;;;;;;;4.20;1.10;;;33.70;38.00;;;;;;4708471;30;20060;-77
2021/07/16 14:35:49;;;;;;;4.05;1.38;;;33.70;37.30;;;;;;4710895;30;20673;-77
2021/07/16 14:38:15;;;;;;;1.10;1.00;;;33.80;37.10;;;;;;4711705;30;20042;-77
2021/07/16 14:40:41;;;;;;;1.93;0.93;;;33.90;36.20;;;;;;4697164;30;20056;-78
2021/07/16 14:43:07;;;;;;;2.58;1.13;;;33.80;36.30;;;;;;4695355;30;20292;-78
2021/07/16 14:45:32;;;;;;;2.35;1.10;;;33.80;37.60;;;;;;4713889;30;20038;-78
2021/07/16 14:47:58;;;;;;;1.67;1.30;;;33.70;37.60;;;;;;4728154;30;20044;-78
2021/07/16 14:50:25;;;;;;;8.10;1.50;;;33.70;37.80;;;;;;4709222;30;20108;-77
2021/07/16 14:52:51;;;;;;;;;;;33.70;36.50;;;;;;4704373;30;20049;-77
2021/07/16 14:55:19;;;;;;;2.65;1.00;;;33.60;37.60;;;;;;4712287;30;19911;-78
2021/07/16 14:57:45;;;;;;;2.78;1.15;;;33.60;35.90;;;;;;4711658;30;20057;-78
2021/07/16 15:00:13;;;;;;;1.73;1.08;;;33.50;37.90;;;;;;4711927;30;20037;-78
2021/07/16 15:02:39;;;;;;;2.28;1.10;;;33.50;36.90;;;;;;4711996;30;20064;-76
2021/07/16 15:05:06;;;;;;;3.92;1.20;;;33.60;37.90;;;;;;4710423;30;20045;-77
2021/07/16 15:07:32;;;;;;;1.45;1.25;;;33.70;38.40;;;;;;4710408;30;20039;-77
2021/07/16 15:10:00;;;;;;;2.03;1.13;;;33.80;39.10;;;;;;4711096;30;20108;-76
2021/07/16 15:12:27;;;;;;;4.80;0.93;;;33.60;37.50;;;;;;4695416;30;20084;-77
2021/07/16 15:14:52;;;;;;;5.18;0.95;;;33.60;38.90;;;;;;4694893;30;20029;-77
2021/07/16 15:17:18;;;;;;;4.30;1.83;;;33.70;39.50;;;;;;4711599;30;20040;-76
2021/07/16 15:19:44;;;;;;;4.97;1.13;;;33.60;38.40;;;;;;4712242;30;20037;-77
2021/07/16 15:22:10;;;;;;;3.10;1.47;;;33.50;38.90;;;;;;4702406;30;20325;-77
2021/07/16 15:24:37;;;;;;;3.60;1.37;;;33.50;39.10;;;;;;4711164;30;20040;-77
2021/07/16 15:27:03;;;;;;;6.30;1.90;;;33.30;38.60;;;;;;4727032;30;20349;-77
2021/07/16 15:29:29;;;;;;;4.10;3.63;;;33.20;39.90;;;;;;4711378;30;20029;-76
2021/07/16 15:31:55;;;;;;;3.87;1.10;;;33.30;39.30;;;;;;4724015;30;20297;-77
2021/07/16 15:34:21;;;;;;;1.80;1.10;;;33.40;38.60;;;;;;4691327;30;20067;-76
2021/07/16 15:36:47;;;;;;;1.77;1.27;;;33.20;38.20;;;;;;4711291;30;20044;-77
2021/07/16 15:39:14;;;;;;;2.03;1.35;;;33.00;39.60;;;;;;4725936;30;20304;-76
2021/07/16 15:41:39;;;;;;;;;;;32.90;38.70;;;;;;4724972;30;20029;-76
2021/07/16 15:44:06;;;;;;;4.75;1.60;;;32.90;38.30;;;;;;4706978;30;19921;-77